sensor_id;sensor_type;location;lat;lon;timestamp;pressure;altitude;pressure_sealevel;temperature;humidity
12987;BME280;58897;51.960;5.582;2023-02-28T00:00:35;102867.81;;;1.24;100.00
12987;BME280;58897;51.960;5.582;2023-02-28T00:03:02;102869.47;;;1.27;100.00
12987;BME280;58897;51.960;5.582;2023-02-28T00:05:29;102860.81;;;1.20;100.00
12987;BME280;58897;51.960;5.582;2023-02-28T00:07:55;102859.63;;;1.29;100.00
12987;BME280;58897;51.960;5.582;2023-02-28T00:10:25;102861.91;;;1.39;100.00
12987;BME280;58897;51.960;5.582;2023-02-28T00:12:54;102867.31;;;1.38;100.00
12987;BME280;58897;51.960;5.582;2023-02-28T00:15:23;102864.69;;;1.36;100.00
12987;BME280;58897;51.960;5.582;2023-02-28T00:17:50;102874.22;;;1.43;100.00
12987;BME280;58897;51.960;5.582;2023-02-28T00:20:17;102866.22;;;1.43;100.00
12987;BME280;58897;51.960;5.582;2023-02-28T00:22:47;102865.09;;;1.49;100.00
12987;BME280;58897;51.960;5.582;2023-02-28T00:25:16;102858.06;;;1.48;100.00
12987;BME280;58897;51.960;5.582;2023-02-28T00:27:43;102857.97;;;1.49;100.00
12987;BME280;58897;51.960;5.582;2023-02-28T00:30:13;102852.72;;;1.48;100.00
12987;BME280;58897;51.960;5.582;2023-02-28T00:32:40;102854.13;;;1.58;100.00
12987;BME280;58897;51.960;5.582;2023-02-28T00:35:07;102853.22;;;1.59;100.00
12987;BME280;58897;51.960;5.582;2023-02-28T00:37:35;102849.59;;;1.60;100.00
12987;BME280;58897;51.960;5.582;2023-02-28T00:40:01;102845.03;;;1.63;100.00
12987;BME280;58897;51.960;5.582;2023-02-28T00:42:30;102853.47;;;1.51;100.00
12987;BME280;58897;51.960;5.582;2023-02-28T00:44:57;102850.66;;;1.56;100.00
12987;BME280;58897;51.960;5.582;2023-02-28T00:47:23;102848.50;;;1.65;100.00
12987;BME280;58897;51.960;5.582;2023-02-28T00:49:50;102846.34;;;1.75;100.00
12987;BME280;58897;51.960;5.582;2023-02-28T00:52:17;102844.63;;;1.74;100.00
12987;BME280;58897;51.960;5.582;2023-02-28T00:54:43;102849.16;;;1.72;100.00
12987;BME280;58897;51.960;5.582;2023-02-28T00:57:09;102848.78;;;1.81;100.00
12987;BME280;58897;51.960;5.582;2023-02-28T00:59:36;102850.53;;;1.82;100.00
12987;BME280;58897;51.960;5.582;2023-02-28T01:02:02;102839.13;;;1.78;100.00
12987;BME280;58897;51.960;5.582;2023-02-28T01:04:29;102847.22;;;1.75;100.00
12987;BME280;58897;51.960;5.582;2023-02-28T01:06:55;102846.19;;;1.79;100.00
12987;BME280;58897;51.960;5.582;2023-02-28T01:09:22;102854.28;;;1.76;100.00
12987;BME280;58897;51.960;5.582;2023-02-28T01:11:48;102860.63;;;1.74;100.00
12987;BME280;58897;51.960;5.582;2023-02-28T01:14:16;102857.66;;;1.81;100.00
12987;BME280;58897;51.960;5.582;2023-02-28T01:16:43;102861.31;;;1.79;100.00
12987;BME280;58897;51.960;5.582;2023-02-28T01:19:10;102858.63;;;1.79;100.00
12987;BME280;58897;51.960;5.582;2023-02-28T01:21:36;102863.31;;;1.72;100.00
12987;BME280;58897;51.960;5.582;2023-02-28T01:24:03;102856.84;;;1.79;100.00
12987;BME280;58897;51.960;5.582;2023-02-28T01:26:31;102851.56;;;1.78;100.00
12987;BME280;58897;51.960;5.582;2023-02-28T01:28:57;102848.22;;;1.73;100.00
12987;BME280;58897;51.960;5.582;2023-02-28T01:31:24;102854.28;;;1.76;100.00
12987;BME280;58897;51.960;5.582;2023-02-28T01:33:51;102840.22;;;1.73;100.00
12987;BME280;58897;51.960;5.582;2023-02-28T01:36:20;102842.88;;;1.73;100.00
12987;BME280;58897;51.960;5.582;2023-02-28T01:38:47;102849.78;;;1.78;100.00
12987;BME280;58897;51.960;5.582;2023-02-28T01:41:23;102850.00;;;1.72;100.00
12987;BME280;58897;51.960;5.582;2023-02-28T01:46:16;102853.25;;;1.80;100.00
12987;BME280;58897;51.960;5.582;2023-02-28T01:48:47;102842.56;;;1.80;100.00
12987;BME280;58897;51.960;5.582;2023-02-28T01:51:30;102849.44;;;1.88;100.00
12987;BME280;58897;51.960;5.582;2023-02-28T01:54:08;102854.69;;;1.89;100.00
12987;BME280;58897;51.960;5.582;2023-02-28T01:59:52;102846.91;;;1.83;100.00
12987;BME280;58897;51.960;5.582;2023-02-28T02:02:22;102838.13;;;1.81;100.00
12987;BME280;58897;51.960;5.582;2023-02-28T02:05:17;102839.19;;;1.77;100.00
12987;BME280;58897;51.960;5.582;2023-02-28T02:07:46;102837.38;;;1.77;100.00
12987;BME280;58897;51.960;5.582;2023-02-28T02:10:17;102829.13;;;1.83;100.00
12987;BME280;58897;51.960;5.582;2023-02-28T02:15:44;102829.03;;;1.86;100.00
12987;BME280;58897;51.960;5.582;2023-02-28T02:18:27;102829.81;;;1.88;100.00
12987;BME280;58897;51.960;5.582;2023-02-28T02:21:19;102822.59;;;1.92;100.00
12987;BME280;58897;51.960;5.582;2023-02-28T02:24:18;102822.63;;;1.91;100.00
12987;BME280;58897;51.960;5.582;2023-02-28T02:32:54;102829.47;;;1.98;100.00
12987;BME280;58897;51.960;5.582;2023-02-28T02:35:47;102833.28;;;1.91;100.00
12987;BME280;58897;51.960;5.582;2023-02-28T02:38:29;102837.38;;;2.01;100.00
12987;BME280;58897;51.960;5.582;2023-02-28T02:43:47;102829.78;;;1.90;100.00
12987;BME280;58897;51.960;5.582;2023-02-28T02:46:34;102835.53;;;2.01;100.00
12987;BME280;58897;51.960;5.582;2023-02-28T02:49:06;102838.34;;;1.98;100.00
12987;BME280;58897;51.960;5.582;2023-02-28T02:51:35;102835.63;;;2.00;100.00
12987;BME280;58897;51.960;5.582;2023-02-28T02:54:13;102838.91;;;2.06;100.00
12987;BME280;58897;51.960;5.582;2023-02-28T02:56:47;102838.97;;;2.05;100.00
12987;BME280;58897;51.960;5.582;2023-02-28T02:59:19;102843.44;;;2.04;100.00
12987;BME280;58897;51.960;5.582;2023-02-28T03:02:00;102838.78;;;2.09;100.00
12987;BME280;58897;51.960;5.582;2023-02-28T03:04:32;102843.06;;;2.13;100.00
12987;BME280;58897;51.960;5.582;2023-02-28T03:07:01;102840.53;;;2.10;100.00
12987;BME280;58897;51.960;5.582;2023-02-28T03:09:27;102840.88;;;2.01;100.00
12987;BME280;58897;51.960;5.582;2023-02-28T03:11:55;102845.75;;;2.13;100.00
12987;BME280;58897;51.960;5.582;2023-02-28T03:19:51;102853.84;;;2.10;100.00
12987;BME280;58897;51.960;5.582;2023-02-28T03:25:33;102854.63;;;2.14;100.00
12987;BME280;58897;51.960;5.582;2023-02-28T03:28:17;102853.63;;;2.16;100.00
12987;BME280;58897;51.960;5.582;2023-02-28T03:31:07;102853.63;;;2.16;100.00
12987;BME280;58897;51.960;5.582;2023-02-28T03:33:41;102853.75;;;2.13;100.00
12987;BME280;58897;51.960;5.582;2023-02-28T03:36:13;102853.78;;;2.12;100.00
12987;BME280;58897;51.960;5.582;2023-02-28T03:38:46;102857.88;;;2.20;100.00
12987;BME280;58897;51.960;5.582;2023-02-28T03:41:26;102859.69;;;2.20;100.00
12987;BME280;58897;51.960;5.582;2023-02-28T03:44:01;102852.97;;;2.10;100.00
12987;BME280;58897;51.960;5.582;2023-02-28T03:46:31;102853.75;;;2.13;100.00
12987;BME280;58897;51.960;5.582;2023-02-28T03:49:09;102852.41;;;2.02;100.00
12987;BME280;58897;51.960;5.582;2023-02-28T03:51:38;102855.75;;;2.07;100.00
12987;BME280;58897;51.960;5.582;2023-02-28T03:54:10;102859.38;;;2.06;100.00
12987;BME280;58897;51.960;5.582;2023-02-28T03:56:48;102857.84;;;1.99;100.00
12987;BME280;58897;51.960;5.582;2023-02-28T03:59:27;102861.63;;;2.16;100.00
12987;BME280;58897;51.960;5.582;2023-02-28T04:01:54;102857.31;;;2.12;100.00
12987;BME280;58897;51.960;5.582;2023-02-28T04:04:21;102861.78;;;2.12;100.00
12987;BME280;58897;51.960;5.582;2023-02-28T04:06:52;102860.00;;;2.12;100.00
12987;BME280;58897;51.960;5.582;2023-02-28T04:09:27;102852.09;;;2.09;100.00
12987;BME280;58897;51.960;5.582;2023-02-28T04:11:54;102855.88;;;2.04;100.00
12987;BME280;58897;51.960;5.582;2023-02-28T04:14:22;102852.59;;;1.97;100.00
12987;BME280;58897;51.960;5.582;2023-02-28T04:16:48;102855.66;;;2.10;100.00
12987;BME280;58897;51.960;5.582;2023-02-28T04:19:17;102849.97;;;1.96;100.00
12987;BME280;58897;51.960;5.582;2023-02-28T04:21:45;102854.38;;;1.97;100.00
12987;BME280;58897;51.960;5.582;2023-02-28T04:24:21;102870.34;;;1.98;100.00
12987;BME280;58897;51.960;5.582;2023-02-28T04:26:50;102865.16;;;1.94;100.00
12987;BME280;58897;51.960;5.582;2023-02-28T04:29:28;102865.06;;;1.97;100.00
12987;BME280;58897;51.960;5.582;2023-02-28T04:31:55;102866.91;;;1.95;100.00
12987;BME280;58897;51.960;5.582;2023-02-28T04:34:26;102856.25;;;1.95;100.00
12987;BME280;58897;51.960;5.582;2023-02-28T04:36:54;102839.38;;;1.94;100.00
12987;BME280;58897;51.960;5.582;2023-02-28T04:39:38;102849.56;;;2.06;100.00
12987;BME280;58897;51.960;5.582;2023-02-28T04:42:05;102855.84;;;2.05;100.00
12987;BME280;58897;51.960;5.582;2023-02-28T04:44:31;102853.97;;;2.07;100.00
12987;BME280;58897;51.960;5.582;2023-02-28T04:46:58;102854.84;;;2.08;100.00
12987;BME280;58897;51.960;5.582;2023-02-28T04:49:25;102849.44;;;2.09;100.00
12987;BME280;58897;51.960;5.582;2023-02-28T04:51:51;102839.84;;;2.05;100.00
12987;BME280;58897;51.960;5.582;2023-02-28T04:54:19;102852.19;;;2.08;100.00
12987;BME280;58897;51.960;5.582;2023-02-28T04:56:45;102849.56;;;2.06;100.00
12987;BME280;58897;51.960;5.582;2023-02-28T04:59:12;102849.31;;;2.12;100.00
12987;BME280;58897;51.960;5.582;2023-02-28T05:01:38;102852.19;;;2.08;100.00
12987;BME280;58897;51.960;5.582;2023-02-28T05:04:05;102845.91;;;2.09;100.00
12987;BME280;58897;51.960;5.582;2023-02-28T05:06:32;102855.03;;;2.03;100.00
12987;BME280;58897;51.960;5.582;2023-02-28T05:08:59;102856.56;;;2.09;100.00
12987;BME280;58897;51.960;5.582;2023-02-28T05:11:29;102847.03;;;2.03;100.00
12987;BME280;58897;51.960;5.582;2023-02-28T05:14:00;102849.75;;;2.02;100.00
12987;BME280;58897;51.960;5.582;2023-02-28T05:16:27;102840.06;;;1.99;100.00
12987;BME280;58897;51.960;5.582;2023-02-28T05:18:54;102842.31;;;2.10;100.00
12987;BME280;58897;51.960;5.582;2023-02-28T05:21:30;102843.22;;;2.09;100.00
12987;BME280;58897;51.960;5.582;2023-02-28T05:24:00;102843.44;;;2.04;100.00
12987;BME280;58897;51.960;5.582;2023-02-28T05:26:27;102842.69;;;2.01;100.00
12987;BME280;58897;51.960;5.582;2023-02-28T05:28:54;102842.50;;;2.05;100.00
12987;BME280;58897;51.960;5.582;2023-02-28T05:31:21;102846.88;;;2.06;100.00
12987;BME280;58897;51.960;5.582;2023-02-28T05:33:47;102841.03;;;1.98;100.00
12987;BME280;58897;51.960;5.582;2023-02-28T05:36:14;102854.88;;;2.06;100.00
12987;BME280;58897;51.960;5.582;2023-02-28T05:38:41;102845.38;;;2.01;100.00
12987;BME280;58897;51.960;5.582;2023-02-28T05:41:11;102838.59;;;1.92;100.00
12987;BME280;58897;51.960;5.582;2023-02-28T05:43:37;102843.44;;;2.04;100.00
12987;BME280;58897;51.960;5.582;2023-02-28T05:46:06;102847.88;;;2.04;100.00
12987;BME280;58897;51.960;5.582;2023-02-28T05:48:34;102851.50;;;2.03;100.00
12987;BME280;58897;51.960;5.582;2023-02-28T05:51:01;102852.19;;;2.08;100.00
12987;BME280;58897;51.960;5.582;2023-02-28T05:53:29;102856.03;;;2.01;100.00
12987;BME280;58897;51.960;5.582;2023-02-28T05:55:55;102862.06;;;1.82;100.00
12987;BME280;58897;51.960;5.582;2023-02-28T05:58:22;102857.34;;;1.89;100.00
12987;BME280;58897;51.960;5.582;2023-02-28T06:00:49;102869.75;;;1.90;100.00
12987;BME280;58897;51.960;5.582;2023-02-28T06:03:16;102860.03;;;1.89;100.00
12987;BME280;58897;51.960;5.582;2023-02-28T06:05:42;102854.28;;;2.00;100.00
12987;BME280;58897;51.960;5.582;2023-02-28T06:08:09;102848.19;;;1.96;100.00
12987;BME280;58897;51.960;5.582;2023-02-28T06:10:35;102847.19;;;1.99;100.00
12987;BME280;58897;51.960;5.582;2023-02-28T06:13:03;102852.28;;;2.05;100.00
12987;BME280;58897;51.960;5.582;2023-02-28T06:15:30;102857.69;;;2.03;100.00
12987;BME280;58897;51.960;5.582;2023-02-28T06:17:57;102862.09;;;2.04;100.00
12987;BME280;58897;51.960;5.582;2023-02-28T06:20:24;102854.34;;;1.98;100.00
12987;BME280;58897;51.960;5.582;2023-02-28T06:22:52;102846.50;;;1.94;100.00
12987;BME280;58897;51.960;5.582;2023-02-28T06:25:20;102848.84;;;2.03;100.00
12987;BME280;58897;51.960;5.582;2023-02-28T06:27:47;102861.28;;;2.02;100.00
12987;BME280;58897;51.960;5.582;2023-02-28T06:30:14;102863.38;;;1.94;100.00
12987;BME280;58897;51.960;5.582;2023-02-28T06:32:41;102862.09;;;2.04;100.00
12987;BME280;58897;51.960;5.582;2023-02-28T06:35:07;102865.44;;;2.09;100.00
12987;BME280;58897;51.960;5.582;2023-02-28T06:37:34;102874.31;;;2.10;100.00
12987;BME280;58897;51.960;5.582;2023-02-28T06:40:01;102873.56;;;2.06;100.00
12987;BME280;58897;51.960;5.582;2023-02-28T06:42:27;102866.53;;;2.04;100.00
12987;BME280;58897;51.960;5.582;2023-02-28T06:44:55;102881.00;;;1.98;100.00
12987;BME280;58897;51.960;5.582;2023-02-28T06:47:22;102881.69;;;2.03;100.00
12987;BME280;58897;51.960;5.582;2023-02-28T06:49:49;102885.06;;;2.08;100.00
12987;BME280;58897;51.960;5.582;2023-02-28T06:52:16;102877.22;;;2.04;100.00
12987;BME280;58897;51.960;5.582;2023-02-28T06:54:42;102878.78;;;2.09;100.00
12987;BME280;58897;51.960;5.582;2023-02-28T06:57:09;102885.91;;;2.09;100.00
12987;BME280;58897;51.960;5.582;2023-02-28T06:59:35;102881.97;;;2.19;100.00
12987;BME280;58897;51.960;5.582;2023-02-28T07:02:02;102876.06;;;2.11;100.00
12987;BME280;58897;51.960;5.582;2023-02-28T07:04:29;102887.44;;;2.14;100.00
12987;BME280;58897;51.960;5.582;2023-02-28T07:06:55;102900.78;;;2.14;100.00
12987;BME280;58897;51.960;5.582;2023-02-28T07:09:23;102900.56;;;2.20;100.00
12987;BME280;58897;51.960;5.582;2023-02-28T07:11:50;102892.47;;;2.22;100.00
12987;BME280;58897;51.960;5.582;2023-02-28T07:14:16;102898.94;;;2.38;100.00
12987;BME280;58897;51.960;5.582;2023-02-28T07:16:43;102896.28;;;2.38;100.00
12987;BME280;58897;51.960;5.582;2023-02-28T07:19:11;102895.63;;;2.55;100.00
12987;BME280;58897;51.960;5.582;2023-02-28T07:21:38;102903.09;;;2.67;100.00
12987;BME280;58897;51.960;5.582;2023-02-28T07:24:04;102900.41;;;2.68;100.00
12987;BME280;58897;51.960;5.582;2023-02-28T07:26:31;102901.88;;;2.75;100.00
12987;BME280;58897;51.960;5.582;2023-02-28T07:29:00;102898.88;;;2.83;100.00
12987;BME280;58897;51.960;5.582;2023-02-28T07:31:26;102898.09;;;2.81;100.00
12987;BME280;58897;51.960;5.582;2023-02-28T07:33:54;102893.31;;;2.67;100.00
12987;BME280;58897;51.960;5.582;2023-02-28T07:36:20;102893.19;;;2.70;100.00
12987;BME280;58897;51.960;5.582;2023-02-28T07:38:47;102897.00;;;2.85;100.00
12987;BME280;58897;51.960;5.582;2023-02-28T07:41:17;102900.75;;;2.81;100.00
12987;BME280;58897;51.960;5.582;2023-02-28T07:43:44;102908.56;;;2.85;100.00
12987;BME280;58897;51.960;5.582;2023-02-28T07:46:13;102912.69;;;2.92;100.00
12987;BME280;58897;51.960;5.582;2023-02-28T07:48:42;102910.31;;;2.86;100.00
12987;BME280;58897;51.960;5.582;2023-02-28T07:51:09;102908.88;;;2.78;100.00
12987;BME280;58897;51.960;5.582;2023-02-28T07:53:36;102899.31;;;2.94;100.00
12987;BME280;58897;51.960;5.582;2023-02-28T07:56:03;102909.53;;;3.04;100.00
12987;BME280;58897;51.960;5.582;2023-02-28T07:58:30;102912.09;;;3.28;100.00
12987;BME280;58897;51.960;5.582;2023-02-28T08:00:57;102903.44;;;3.21;100.00
12987;BME280;58897;51.960;5.582;2023-02-28T08:03:24;102911.78;;;3.34;100.00
12987;BME280;58897;51.960;5.582;2023-02-28T08:05:50;102913.63;;;3.33;100.00
12987;BME280;58897;51.960;5.582;2023-02-28T08:08:18;102916.66;;;3.64;100.00
12987;BME280;58897;51.960;5.582;2023-02-28T08:10:45;102909.03;;;3.94;100.00
12987;BME280;58897;51.960;5.582;2023-02-28T08:13:12;102905.72;;;4.26;100.00
12987;BME280;58897;51.960;5.582;2023-02-28T08:15:40;102911.31;;;4.76;100.00
12987;BME280;58897;51.960;5.582;2023-02-28T08:18:07;102899.34;;;5.00;100.00
12987;BME280;58897;51.960;5.582;2023-02-28T08:20:36;102908.41;;;4.98;100.00
12987;BME280;58897;51.960;5.582;2023-02-28T08:23:02;102916.84;;;5.25;100.00
12987;BME280;58897;51.960;5.582;2023-02-28T08:25:29;102917.63;;;5.27;100.00
12987;BME280;58897;51.960;5.582;2023-02-28T08:27:55;102919.50;;;4.73;100.00
12987;BME280;58897;51.960;5.582;2023-02-28T08:30:22;102924.69;;;4.76;100.00
12987;BME280;58897;51.960;5.582;2023-02-28T08:32:48;102915.06;;;4.72;100.00
12987;BME280;58897;51.960;5.582;2023-02-28T08:35:15;102919.22;;;4.61;98.21
12987;BME280;58897;51.960;5.582;2023-02-28T08:37:42;102902.06;;;4.65;94.74
12987;BME280;58897;51.960;5.582;2023-02-28T08:40:09;102911.50;;;4.55;91.35
12987;BME280;58897;51.960;5.582;2023-02-28T08:42:35;102919.13;;;4.62;85.76
12987;BME280;58897;51.960;5.582;2023-02-28T08:45:02;102913.13;;;4.76;87.74
12987;BME280;58897;51.960;5.582;2023-02-28T08:47:29;102911.25;;;4.59;91.30
12987;BME280;58897;51.960;5.582;2023-02-28T08:49:55;102917.63;;;4.57;84.17
12987;BME280;58897;51.960;5.582;2023-02-28T08:52:22;102915.75;;;4.59;81.54
12987;BME280;58897;51.960;5.582;2023-02-28T08:54:48;102909.97;;;4.85;82.30
12987;BME280;58897;51.960;5.582;2023-02-28T08:57:15;102907.88;;;5.26;82.11
12987;BME280;58897;51.960;5.582;2023-02-28T08:59:42;102905.56;;;5.52;72.13
12987;BME280;58897;51.960;5.582;2023-02-28T09:02:11;102901.25;;;5.50;68.68
12987;BME280;58897;51.960;5.582;2023-02-28T09:04:38;102911.06;;;5.67;71.63
12987;BME280;58897;51.960;5.582;2023-02-28T09:07:05;102908.28;;;5.85;67.50
12987;BME280;58897;51.960;5.582;2023-02-28T09:09:31;102899.97;;;6.83;59.16
12987;BME280;58897;51.960;5.582;2023-02-28T09:11:58;102898.75;;;7.91;51.25
12987;BME280;58897;51.960;5.582;2023-02-28T09:14:25;102896.09;;;8.60;49.90
12987;BME280;58897;51.960;5.582;2023-02-28T09:16:51;102899.97;;;9.22;47.04
12987;BME280;58897;51.960;5.582;2023-02-28T09:19:18;102897.28;;;9.35;44.99
12987;BME280;58897;51.960;5.582;2023-02-28T09:21:44;102910.19;;;9.17;44.87
12987;BME280;58897;51.960;5.582;2023-02-28T09:24:11;102897.84;;;8.74;43.35
12987;BME280;58897;51.960;5.582;2023-02-28T09:26:40;102909.81;;;8.69;43.30
12987;BME280;58897;51.960;5.582;2023-02-28T09:29:16;102900.84;;;9.73;44.06
12987;BME280;58897;51.960;5.582;2023-02-28T09:31:43;102899.66;;;9.89;40.01
12987;BME280;58897;51.960;5.582;2023-02-28T09:34:10;102903.50;;;8.56;39.93
12987;BME280;58897;51.960;5.582;2023-02-28T09:36:37;102910.06;;;8.79;40.46
12987;BME280;58897;51.960;5.582;2023-02-28T09:39:12;102905.38;;;10.10;38.54
12987;BME280;58897;51.960;5.582;2023-02-28T09:41:42;102901.03;;;10.33;38.35
12987;BME280;58897;51.960;5.582;2023-02-28T09:44:38;102897.56;;;10.31;37.09
12987;BME280;58897;51.960;5.582;2023-02-28T09:50:20;102904.97;;;10.16;37.27
12987;BME280;58897;51.960;5.582;2023-02-28T09:52:50;102897.91;;;11.56;36.68
12987;BME280;58897;51.960;5.582;2023-02-28T09:55:23;102896.84;;;11.35;36.13
12987;BME280;58897;51.960;5.582;2023-02-28T09:57:54;102893.47;;;11.55;37.26
12987;BME280;58897;51.960;5.582;2023-02-28T10:00:36;102886.03;;;12.03;38.05
12987;BME280;58897;51.960;5.582;2023-02-28T10:09:04;102883.44;;;11.90;34.12
12987;BME280;58897;51.960;5.582;2023-02-28T10:11:33;102879.41;;;12.72;33.49
12987;BME280;58897;51.960;5.582;2023-02-28T10:14:06;102882.63;;;12.55;34.51
12987;BME280;58897;51.960;5.582;2023-02-28T10:21:46;102877.50;;;12.41;32.34
12987;BME280;58897;51.960;5.582;2023-02-28T10:24:21;102881.22;;;12.82;31.26
12987;BME280;58897;51.960;5.582;2023-02-28T10:26:52;102870.47;;;12.81;32.68
12987;BME280;58897;51.960;5.582;2023-02-28T10:29:22;102875.59;;;12.63;32.90
12987;BME280;58897;51.960;5.582;2023-02-28T10:31:49;102878.38;;;12.73;32.99
12987;BME280;58897;51.960;5.582;2023-02-28T10:34:15;102872.22;;;13.14;31.77
12987;BME280;58897;51.960;5.582;2023-02-28T10:36:42;102869.97;;;13.60;31.67
12987;BME280;58897;51.960;5.582;2023-02-28T10:39:34;102878.03;;;13.30;30.74
12987;BME280;58897;51.960;5.582;2023-02-28T10:42:00;102881.34;;;12.38;34.92
12987;BME280;58897;51.960;5.582;2023-02-28T10:44:27;102871.03;;;13.27;31.57
12987;BME280;58897;51.960;5.582;2023-02-28T10:46:53;102869.03;;;14.01;31.95
12987;BME280;58897;51.960;5.582;2023-02-28T10:49:25;102865.31;;;13.51;32.00
12987;BME280;58897;51.960;5.582;2023-02-28T10:51:55;102883.31;;;11.35;32.80
12987;BME280;58897;51.960;5.582;2023-02-28T10:54:33;102856.03;;;13.74;31.14
12987;BME280;58897;51.960;5.582;2023-02-28T10:57:16;102863.63;;;13.09;32.42
12987;BME280;58897;51.960;5.582;2023-02-28T10:59:44;102851.63;;;14.13;31.80
12987;BME280;58897;51.960;5.582;2023-02-28T11:02:33;102846.06;;;14.14;30.79
12987;BME280;58897;51.960;5.582;2023-02-28T11:05:25;102846.91;;;14.64;30.97
12987;BME280;58897;51.960;5.582;2023-02-28T11:07:53;102849.91;;;12.78;31.74
12987;BME280;58897;51.960;5.582;2023-02-28T11:10:24;102843.94;;;14.18;31.53
12987;BME280;58897;51.960;5.582;2023-02-28T11:12:55;102833.75;;;14.98;29.11
12987;BME280;58897;51.960;5.582;2023-02-28T11:15:27;102834.75;;;14.09;32.48
12987;BME280;58897;51.960;5.582;2023-02-28T11:20:49;102821.47;;;15.96;28.96
12987;BME280;58897;51.960;5.582;2023-02-28T11:23:16;102832.88;;;14.98;29.19
12987;BME280;58897;51.960;5.582;2023-02-28T11:25:51;102831.88;;;14.99;30.02
12987;BME280;58897;51.960;5.582;2023-02-28T11:33:46;102821.19;;;15.63;30.13
12987;BME280;58897;51.960;5.582;2023-02-28T11:36:19;102829.25;;;15.26;29.49
12987;BME280;58897;51.960;5.582;2023-02-28T11:38:48;102824.13;;;14.94;29.84
12987;BME280;58897;51.960;5.582;2023-02-28T11:46:48;102811.06;;;14.31;32.08
12987;BME280;58897;51.960;5.582;2023-02-28T11:49:27;102815.97;;;13.97;31.81
12987;BME280;58897;51.960;5.582;2023-02-28T11:52:01;102810.28;;;14.19;31.82
12987;BME280;58897;51.960;5.582;2023-02-28T11:54:57;102800.88;;;15.38;30.54
12987;BME280;58897;51.960;5.582;2023-02-28T11:58:00;102807.94;;;14.45;30.58
12987;BME280;58897;51.960;5.582;2023-02-28T12:00:57;102809.06;;;15.28;30.30
12987;BME280;58897;51.960;5.582;2023-02-28T12:06:20;102794.38;;;14.64;31.14
12987;BME280;58897;51.960;5.582;2023-02-28T12:09:20;102788.69;;;14.17;31.06
12987;BME280;58897;51.960;5.582;2023-02-28T12:11:56;102791.06;;;14.51;30.14
12987;BME280;58897;51.960;5.582;2023-02-28T12:17:42;102797.50;;;14.40;30.43
12987;BME280;58897;51.960;5.582;2023-02-28T12:20:33;102789.94;;;14.82;30.21
12987;BME280;58897;51.960;5.582;2023-02-28T12:28:41;102780.53;;;14.17;30.49
12987;BME280;58897;51.960;5.582;2023-02-28T12:31:24;102779.84;;;15.21;29.80
12987;BME280;58897;51.960;5.582;2023-02-28T12:34:42;102782.81;;;13.01;30.96
12987;BME280;58897;51.960;5.582;2023-02-28T12:36:51;102770.38;;;14.29;31.57
12987;BME280;58897;51.960;5.582;2023-02-28T12:39:31;102768.50;;;15.25;30.94
12987;BME280;58897;51.960;5.582;2023-02-28T12:42:29;102766.69;;;15.63;29.89
12987;BME280;58897;51.960;5.582;2023-02-28T12:45:04;102767.72;;;14.48;31.26
12987;BME280;58897;51.960;5.582;2023-02-28T12:47:38;102759.91;;;15.30;30.19
12987;BME280;58897;51.960;5.582;2023-02-28T12:50:07;102763.75;;;13.93;28.31
12987;BME280;58897;51.960;5.582;2023-02-28T12:52:56;102766.53;;;14.22;30.21
12987;BME280;58897;51.960;5.582;2023-02-28T12:55:42;102767.09;;;13.67;29.28
12987;BME280;58897;51.960;5.582;2023-02-28T12:58:33;102761.84;;;14.53;30.06
12987;BME280;58897;51.960;5.582;2023-02-28T13:06:45;102746.84;;;13.20;31.33
12987;BME280;58897;51.960;5.582;2023-02-28T13:09:20;102743.63;;;14.15;30.57
12987;BME280;58897;51.960;5.582;2023-02-28T13:11:49;102745.97;;;12.98;30.43
12987;BME280;58897;51.960;5.582;2023-02-28T13:14:36;102743.72;;;13.45;31.85
12987;BME280;58897;51.960;5.582;2023-02-28T13:19:39;102740.88;;;14.05;32.04
12987;BME280;58897;51.960;5.582;2023-02-28T13:22:17;102731.81;;;13.76;31.37
12987;BME280;58897;51.960;5.582;2023-02-28T13:24:57;102732.19;;;14.21;30.34
12987;BME280;58897;51.960;5.582;2023-02-28T13:27:40;102724.94;;;13.72;29.91
12987;BME280;58897;51.960;5.582;2023-02-28T13:38:53;102723.28;;;13.90;30.83
12987;BME280;58897;51.960;5.582;2023-02-28T14:05:37;102700.38;;;13.34;32.39
12987;BME280;58897;51.960;5.582;2023-02-28T14:08:20;102699.06;;;13.28;31.69
12987;BME280;58897;51.960;5.582;2023-02-28T14:10:49;102696.44;;;13.17;31.59
12987;BME280;58897;51.960;5.582;2023-02-28T14:16:13;102706.28;;;12.35;34.69
12987;BME280;58897;51.960;5.582;2023-02-28T14:19:02;102682.41;;;13.12;33.48
12987;BME280;58897;51.960;5.582;2023-02-28T14:21:45;102687.44;;;12.75;33.68
12987;BME280;58897;51.960;5.582;2023-02-28T14:24:48;102699.22;;;13.06;33.68
12987;BME280;58897;51.960;5.582;2023-02-28T14:37:45;102704.50;;;11.71;34.31
12987;BME280;58897;51.960;5.582;2023-02-28T14:40:28;102697.31;;;11.92;35.32
12987;BME280;58897;51.960;5.582;2023-02-28T14:43:01;102698.16;;;12.35;35.71
12987;BME280;58897;51.960;5.582;2023-02-28T14:45:30;102699.69;;;11.63;34.65
12987;BME280;58897;51.960;5.582;2023-02-28T14:47:58;102688.63;;;11.77;35.37
12987;BME280;58897;51.960;5.582;2023-02-28T14:50:36;102696.25;;;11.72;35.95
12987;BME280;58897;51.960;5.582;2023-02-28T14:53:03;102693.91;;;11.46;36.30
12987;BME280;58897;51.960;5.582;2023-02-28T14:55:36;102690.25;;;11.25;36.50
12987;BME280;58897;51.960;5.582;2023-02-28T14:58:05;102685.16;;;10.76;37.66
12987;BME280;58897;51.960;5.582;2023-02-28T15:00:40;102696.16;;;10.50;39.51
12987;BME280;58897;51.960;5.582;2023-02-28T15:03:24;102697.66;;;10.07;37.38
12987;BME280;58897;51.960;5.582;2023-02-28T15:05:54;102691.16;;;10.10;37.86
12987;BME280;58897;51.960;5.582;2023-02-28T15:08:21;102695.75;;;9.97;38.64
12987;BME280;58897;51.960;5.582;2023-02-28T15:13:52;102690.03;;;9.28;39.10